sensor_id;sensor_type;location;lat;lon;timestamp;P1;durP1;ratioP1;P2;durP2;ratioP2
11187;SDS011;5650;52.700;7.306;2023-06-10T00:00:16;7.30;;;4.13;;
11187;SDS011;5650;52.700;7.306;2023-06-10T00:02:46;6.85;;;4.00;;
11187;SDS011;5650;52.700;7.306;2023-06-10T00:05:14;8.60;;;4.30;;
11187;SDS011;5650;52.700;7.306;2023-06-10T00:07:43;6.15;;;3.92;;
11187;SDS011;5650;52.700;7.306;2023-06-10T00:10:11;5.55;;;4.45;;
11187;SDS011;5650;52.700;7.306;2023-06-10T00:12:41;8.80;;;4.40;;
11187;SDS011;5650;52.700;7.306;2023-06-10T00:15:15;7.00;;;4.38;;
11187;SDS011;5650;52.700;7.306;2023-06-10T00:17:42;10.07;;;4.20;;
11187;SDS011;5650;52.700;7.306;2023-06-10T00:20:09;8.15;;;4.30;;
11187;SDS011;5650;52.700;7.306;2023-06-10T00:22:38;13.68;;;4.85;;
11187;SDS011;5650;52.700;7.306;2023-06-10T00:25:10;12.43;;;4.85;;
11187;SDS011;5650;52.700;7.306;2023-06-10T00:27:38;8.77;;;4.43;;
11187;SDS011;5650;52.700;7.306;2023-06-10T00:30:08;12.73;;;4.85;;
11187;SDS011;5650;52.700;7.306;2023-06-10T00:32:36;7.38;;;4.55;;
11187;SDS011;5650;52.700;7.306;2023-06-10T00:35:16;9.68;;;4.70;;
11187;SDS011;5650;52.700;7.306;2023-06-10T00:37:46;8.38;;;4.35;;
11187;SDS011;5650;52.700;7.306;2023-06-10T00:40:15;11.85;;;5.45;;
11187;SDS011;5650;52.700;7.306;2023-06-10T00:42:46;7.47;;;4.90;;
11187;SDS011;5650;52.700;7.306;2023-06-10T00:45:16;12.25;;;4.78;;
11187;SDS011;5650;52.700;7.306;2023-06-10T00:47:43;9.35;;;5.05;;
11187;SDS011;5650;52.700;7.306;2023-06-10T00:50:11;10.43;;;5.07;;
11187;SDS011;5650;52.700;7.306;2023-06-10T00:52:49;6.65;;;4.82;;
11187;SDS011;5650;52.700;7.306;2023-06-10T00:55:22;11.43;;;5.30;;
11187;SDS011;5650;52.700;7.306;2023-06-10T00:57:52;11.00;;;5.43;;
11187;SDS011;5650;52.700;7.306;2023-06-10T01:00:20;10.00;;;4.93;;
11187;SDS011;5650;52.700;7.306;2023-06-10T01:02:48;8.35;;;4.90;;
11187;SDS011;5650;52.700;7.306;2023-06-10T01:05:18;8.57;;;4.60;;
11187;SDS011;5650;52.700;7.306;2023-06-10T01:07:48;12.02;;;5.93;;
11187;SDS011;5650;52.700;7.306;2023-06-10T01:10:32;7.03;;;4.68;;
11187;SDS011;5650;52.700;7.306;2023-06-10T01:13:07;8.38;;;4.88;;
11187;SDS011;5650;52.700;7.306;2023-06-10T01:15:41;8.10;;;4.78;;
11187;SDS011;5650;52.700;7.306;2023-06-10T01:18:09;10.07;;;5.47;;
11187;SDS011;5650;52.700;7.306;2023-06-10T01:20:40;11.05;;;5.43;;
11187;SDS011;5650;52.700;7.306;2023-06-10T01:23:10;9.98;;;5.15;;
11187;SDS011;5650;52.700;7.306;2023-06-10T01:25:38;9.43;;;4.60;;
11187;SDS011;5650;52.700;7.306;2023-06-10T01:28:13;11.25;;;5.38;;
11187;SDS011;5650;52.700;7.306;2023-06-10T01:30:45;9.75;;;5.43;;
11187;SDS011;5650;52.700;7.306;2023-06-10T01:33:26;9.60;;;5.00;;
11187;SDS011;5650;52.700;7.306;2023-06-10T01:35:58;7.18;;;4.68;;
11187;SDS011;5650;52.700;7.306;2023-06-10T01:38:30;7.63;;;4.93;;
11187;SDS011;5650;52.700;7.306;2023-06-10T01:40:59;8.73;;;5.40;;
11187;SDS011;5650;52.700;7.306;2023-06-10T01:43:32;10.55;;;5.03;;
11187;SDS011;5650;52.700;7.306;2023-06-10T01:46:03;8.25;;;4.88;;
11187;SDS011;5650;52.700;7.306;2023-06-10T01:48:40;10.10;;;4.93;;
11187;SDS011;5650;52.700;7.306;2023-06-10T01:51:11;8.50;;;5.18;;
11187;SDS011;5650;52.700;7.306;2023-06-10T01:53:40;11.57;;;5.10;;
11187;SDS011;5650;52.700;7.306;2023-06-10T01:56:07;17.02;;;5.47;;
11187;SDS011;5650;52.700;7.306;2023-06-10T01:58:35;9.70;;;4.95;;
11187;SDS011;5650;52.700;7.306;2023-06-10T02:01:05;10.13;;;5.20;;
11187;SDS011;5650;52.700;7.306;2023-06-10T02:03:35;6.80;;;5.05;;
11187;SDS011;5650;52.700;7.306;2023-06-10T02:06:02;8.38;;;5.22;;
11187;SDS011;5650;52.700;7.306;2023-06-10T02:08:36;11.85;;;5.05;;
11187;SDS011;5650;52.700;7.306;2023-06-10T02:11:10;9.13;;;5.47;;
11187;SDS011;5650;52.700;7.306;2023-06-10T02:13:41;14.40;;;5.85;;
11187;SDS011;5650;52.700;7.306;2023-06-10T02:16:11;10.52;;;5.45;;
11187;SDS011;5650;52.700;7.306;2023-06-10T02:18:39;11.27;;;5.72;;
11187;SDS011;5650;52.700;7.306;2023-06-10T02:21:16;9.93;;;5.40;;
11187;SDS011;5650;52.700;7.306;2023-06-10T02:23:46;9.13;;;5.20;;
11187;SDS011;5650;52.700;7.306;2023-06-10T02:26:18;13.30;;;6.35;;
11187;SDS011;5650;52.700;7.306;2023-06-10T02:28:48;9.50;;;5.65;;
11187;SDS011;5650;52.700;7.306;2023-06-10T02:31:15;9.57;;;5.35;;
11187;SDS011;5650;52.700;7.306;2023-06-10T02:33:44;10.70;;;5.07;;
11187;SDS011;5650;52.700;7.306;2023-06-10T02:36:17;15.93;;;5.88;;
11187;SDS011;5650;52.700;7.306;2023-06-10T02:38:44;8.43;;;5.43;;
11187;SDS011;5650;52.700;7.306;2023-06-10T02:41:11;13.55;;;5.90;;
11187;SDS011;5650;52.700;7.306;2023-06-10T02:43:40;8.82;;;5.72;;
11187;SDS011;5650;52.700;7.306;2023-06-10T02:46:07;13.10;;;6.65;;
11187;SDS011;5650;52.700;7.306;2023-06-10T02:48:40;11.10;;;5.70;;
11187;SDS011;5650;52.700;7.306;2023-06-10T02:51:08;8.40;;;5.80;;
11187;SDS011;5650;52.700;7.306;2023-06-10T02:53:44;11.55;;;5.57;;
11187;SDS011;5650;52.700;7.306;2023-06-10T02:56:13;11.63;;;5.60;;
11187;SDS011;5650;52.700;7.306;2023-06-10T02:58:44;10.18;;;5.20;;
11187;SDS011;5650;52.700;7.306;2023-06-10T03:01:11;11.18;;;5.85;;
11187;SDS011;5650;52.700;7.306;2023-06-10T03:03:41;9.57;;;5.72;;
11187;SDS011;5650;52.700;7.306;2023-06-10T03:06:09;9.57;;;5.53;;
11187;SDS011;5650;52.700;7.306;2023-06-10T03:08:51;14.63;;;6.15;;
11187;SDS011;5650;52.700;7.306;2023-06-10T03:11:29;9.75;;;5.95;;
11187;SDS011;5650;52.700;7.306;2023-06-10T03:14:01;9.63;;;5.70;;
11187;SDS011;5650;52.700;7.306;2023-06-10T03:16:37;8.20;;;5.18;;
11187;SDS011;5650;52.700;7.306;2023-06-10T03:19:08;11.38;;;5.50;;
11187;SDS011;5650;52.700;7.306;2023-06-10T03:21:35;8.13;;;5.35;;
11187;SDS011;5650;52.700;7.306;2023-06-10T03:24:03;10.25;;;6.38;;
11187;SDS011;5650;52.700;7.306;2023-06-10T03:26:34;14.02;;;6.43;;
11187;SDS011;5650;52.700;7.306;2023-06-10T03:29:06;10.60;;;5.63;;
11187;SDS011;5650;52.700;7.306;2023-06-10T03:31:36;12.35;;;5.70;;
11187;SDS011;5650;52.700;7.306;2023-06-10T03:34:03;11.60;;;6.13;;
11187;SDS011;5650;52.700;7.306;2023-06-10T03:36:31;14.27;;;5.43;;
11187;SDS011;5650;52.700;7.306;2023-06-10T03:39:07;16.25;;;5.60;;
11187;SDS011;5650;52.700;7.306;2023-06-10T03:41:35;10.85;;;5.55;;
11187;SDS011;5650;52.700;7.306;2023-06-10T03:44:09;14.73;;;6.15;;
11187;SDS011;5650;52.700;7.306;2023-06-10T03:46:37;12.00;;;5.68;;
11187;SDS011;5650;52.700;7.306;2023-06-10T03:49:13;11.95;;;5.40;;
11187;SDS011;5650;52.700;7.306;2023-06-10T03:51:41;12.23;;;5.95;;
11187;SDS011;5650;52.700;7.306;2023-06-10T03:54:08;10.82;;;5.35;;
11187;SDS011;5650;52.700;7.306;2023-06-10T03:56:38;10.25;;;6.10;;
11187;SDS011;5650;52.700;7.306;2023-06-10T03:59:10;9.70;;;5.65;;
11187;SDS011;5650;52.700;7.306;2023-06-10T04:01:37;14.73;;;5.97;;
11187;SDS011;5650;52.700;7.306;2023-06-10T04:04:13;11.48;;;5.38;;
11187;SDS011;5650;52.700;7.306;2023-06-10T04:06:41;9.73;;;5.78;;
11187;SDS011;5650;52.700;7.306;2023-06-10T04:09:10;12.30;;;5.40;;
11187;SDS011;5650;52.700;7.306;2023-06-10T04:11:38;7.68;;;4.63;;
11187;SDS011;5650;52.700;7.306;2023-06-10T04:14:09;10.13;;;5.00;;
11187;SDS011;5650;52.700;7.306;2023-06-10T04:16:38;9.10;;;5.32;;
11187;SDS011;5650;52.700;7.306;2023-06-10T04:19:06;12.38;;;4.70;;
11187;SDS011;5650;52.700;7.306;2023-06-10T04:21:33;8.38;;;4.55;;
11187;SDS011;5650;52.700;7.306;2023-06-10T04:24:07;11.35;;;5.22;;
11187;SDS011;5650;52.700;7.306;2023-06-10T04:26:34;8.38;;;5.00;;
11187;SDS011;5650;52.700;7.306;2023-06-10T04:29:02;11.18;;;5.47;;
11187;SDS011;5650;52.700;7.306;2023-06-10T04:31:34;7.18;;;4.38;;
11187;SDS011;5650;52.700;7.306;2023-06-10T04:34:01;9.27;;;5.00;;
11187;SDS011;5650;52.700;7.306;2023-06-10T04:36:38;14.88;;;5.43;;
11187;SDS011;5650;52.700;7.306;2023-06-10T04:39:09;9.10;;;5.15;;
11187;SDS011;5650;52.700;7.306;2023-06-10T04:41:36;11.55;;;5.32;;
11187;SDS011;5650;52.700;7.306;2023-06-10T04:44:03;11.98;;;5.53;;
11187;SDS011;5650;52.700;7.306;2023-06-10T04:46:38;10.77;;;5.15;;
11187;SDS011;5650;52.700;7.306;2023-06-10T04:49:05;8.35;;;4.80;;
11187;SDS011;5650;52.700;7.306;2023-06-10T04:51:34;12.60;;;5.43;;
11187;SDS011;5650;52.700;7.306;2023-06-10T04:54:14;11.13;;;5.40;;
11187;SDS011;5650;52.700;7.306;2023-06-10T04:56:45;8.80;;;5.28;;
11187;SDS011;5650;52.700;7.306;2023-06-10T04:59:18;6.05;;;4.28;;
11187;SDS011;5650;52.700;7.306;2023-06-10T05:01:52;10.48;;;4.95;;
11187;SDS011;5650;52.700;7.306;2023-06-10T05:04:22;11.00;;;5.00;;
11187;SDS011;5650;52.700;7.306;2023-06-10T05:06:49;7.75;;;4.10;;
11187;SDS011;5650;52.700;7.306;2023-06-10T05:09:16;8.98;;;5.13;;
11187;SDS011;5650;52.700;7.306;2023-06-10T05:11:43;10.93;;;5.35;;
11187;SDS011;5650;52.700;7.306;2023-06-10T05:14:18;12.35;;;5.15;;
11187;SDS011;5650;52.700;7.306;2023-06-10T05:16:54;15.32;;;4.72;;
11187;SDS011;5650;52.700;7.306;2023-06-10T05:19:24;10.65;;;4.53;;
11187;SDS011;5650;52.700;7.306;2023-06-10T05:21:55;11.13;;;4.32;;
11187;SDS011;5650;52.700;7.306;2023-06-10T05:24:24;8.65;;;5.05;;
11187;SDS011;5650;52.700;7.306;2023-06-10T05:26:57;9.15;;;4.47;;
11187;SDS011;5650;52.700;7.306;2023-06-10T05:29:25;11.85;;;5.07;;
11187;SDS011;5650;52.700;7.306;2023-06-10T05:31:56;10.88;;;4.80;;
11187;SDS011;5650;52.700;7.306;2023-06-10T05:34:28;9.70;;;4.38;;
11187;SDS011;5650;52.700;7.306;2023-06-10T05:36:55;7.85;;;4.20;;
11187;SDS011;5650;52.700;7.306;2023-06-10T05:39:22;7.53;;;4.40;;
11187;SDS011;5650;52.700;7.306;2023-06-10T05:42:04;7.28;;;4.38;;
11187;SDS011;5650;52.700;7.306;2023-06-10T05:44:35;12.40;;;4.75;;
11187;SDS011;5650;52.700;7.306;2023-06-10T05:47:07;9.18;;;5.05;;
11187;SDS011;5650;52.700;7.306;2023-06-10T05:49:37;9.98;;;4.50;;
11187;SDS011;5650;52.700;7.306;2023-06-10T05:52:07;10.63;;;4.63;;
11187;SDS011;5650;52.700;7.306;2023-06-10T05:54:34;10.20;;;4.30;;
11187;SDS011;5650;52.700;7.306;2023-06-10T05:57:02;7.43;;;3.88;;
11187;SDS011;5650;52.700;7.306;2023-06-10T05:59:30;9.70;;;4.38;;
11187;SDS011;5650;52.700;7.306;2023-06-10T06:02:00;7.47;;;3.88;;
11187;SDS011;5650;52.700;7.306;2023-06-10T06:04:31;7.20;;;4.13;;
11187;SDS011;5650;52.700;7.306;2023-06-10T06:06:59;7.68;;;4.18;;
11187;SDS011;5650;52.700;7.306;2023-06-10T06:09:26;6.60;;;3.90;;
11187;SDS011;5650;52.700;7.306;2023-06-10T06:11:53;9.18;;;4.25;;
11187;SDS011;5650;52.700;7.306;2023-06-10T06:14:20;8.00;;;4.55;;
11187;SDS011;5650;52.700;7.306;2023-06-10T06:16:47;8.48;;;4.32;;
11187;SDS011;5650;52.700;7.306;2023-06-10T06:19:14;8.40;;;4.13;;
11187;SDS011;5650;52.700;7.306;2023-06-10T06:21:46;12.95;;;4.38;;
11187;SDS011;5650;52.700;7.306;2023-06-10T06:24:16;11.45;;;4.80;;
11187;SDS011;5650;52.700;7.306;2023-06-10T06:26:43;9.00;;;4.53;;
11187;SDS011;5650;52.700;7.306;2023-06-10T06:29:18;7.03;;;4.18;;
11187;SDS011;5650;52.700;7.306;2023-06-10T06:31:48;8.13;;;4.40;;
11187;SDS011;5650;52.700;7.306;2023-06-10T06:34:16;5.97;;;4.20;;
11187;SDS011;5650;52.700;7.306;2023-06-10T06:36:47;7.95;;;4.32;;
11187;SDS011;5650;52.700;7.306;2023-06-10T06:39:14;13.27;;;4.53;;
11187;SDS011;5650;52.700;7.306;2023-06-10T06:41:42;7.88;;;4.00;;
11187;SDS011;5650;52.700;7.306;2023-06-10T06:44:09;11.05;;;4.07;;
11187;SDS011;5650;52.700;7.306;2023-06-10T06:46:36;7.50;;;4.05;;
11187;SDS011;5650;52.700;7.306;2023-06-10T06:49:12;8.98;;;4.72;;
11187;SDS011;5650;52.700;7.306;2023-06-10T06:51:42;9.20;;;4.72;;
11187;SDS011;5650;52.700;7.306;2023-06-10T06:54:21;11.27;;;4.47;;
11187;SDS011;5650;52.700;7.306;2023-06-10T06:56:48;14.40;;;4.65;;
11187;SDS011;5650;52.700;7.306;2023-06-10T06:59:16;7.07;;;4.20;;
11187;SDS011;5650;52.700;7.306;2023-06-10T07:01:47;8.00;;;4.60;;
11187;SDS011;5650;52.700;7.306;2023-06-10T07:04:19;9.48;;;5.07;;
11187;SDS011;5650;52.700;7.306;2023-06-10T07:06:46;9.15;;;4.53;;
11187;SDS011;5650;52.700;7.306;2023-06-10T07:09:15;9.15;;;4.32;;
11187;SDS011;5650;52.700;7.306;2023-06-10T07:11:42;8.25;;;4.28;;
11187;SDS011;5650;52.700;7.306;2023-06-10T07:14:15;9.57;;;4.40;;
11187;SDS011;5650;52.700;7.306;2023-06-10T07:16:45;7.47;;;4.18;;
11187;SDS011;5650;52.700;7.306;2023-06-10T07:19:13;9.02;;;4.45;;
11187;SDS011;5650;52.700;7.306;2023-06-10T07:21:43;7.50;;;3.95;;
11187;SDS011;5650;52.700;7.306;2023-06-10T07:24:11;10.93;;;4.43;;
11187;SDS011;5650;52.700;7.306;2023-06-10T07:26:39;9.20;;;4.25;;
11187;SDS011;5650;52.700;7.306;2023-06-10T07:29:09;7.53;;;4.25;;
11187;SDS011;5650;52.700;7.306;2023-06-10T07:31:41;6.47;;;4.05;;
11187;SDS011;5650;52.700;7.306;2023-06-10T07:34:17;7.20;;;4.57;;
11187;SDS011;5650;52.700;7.306;2023-06-10T07:36:44;8.48;;;4.13;;
11187;SDS011;5650;52.700;7.306;2023-06-10T07:39:11;7.65;;;4.07;;
11187;SDS011;5650;52.700;7.306;2023-06-10T07:41:40;7.78;;;4.30;;
11187;SDS011;5650;52.700;7.306;2023-06-10T07:44:07;8.45;;;4.30;;
11187;SDS011;5650;52.700;7.306;2023-06-10T07:46:34;7.68;;;4.25;;
11187;SDS011;5650;52.700;7.306;2023-06-10T07:49:05;7.05;;;4.32;;
11187;SDS011;5650;52.700;7.306;2023-06-10T07:51:38;10.88;;;4.22;;
11187;SDS011;5650;52.700;7.306;2023-06-10T07:54:05;7.93;;;4.20;;
11187;SDS011;5650;52.700;7.306;2023-06-10T07:56:32;8.02;;;4.40;;
11187;SDS011;5650;52.700;7.306;2023-06-10T07:59:06;8.13;;;4.20;;
11187;SDS011;5650;52.700;7.306;2023-06-10T08:01:33;10.23;;;4.40;;
11187;SDS011;5650;52.700;7.306;2023-06-10T08:04:03;7.70;;;4.25;;
11187;SDS011;5650;52.700;7.306;2023-06-10T08:06:30;8.73;;;4.40;;
11187;SDS011;5650;52.700;7.306;2023-06-10T08:09:04;9.00;;;4.70;;
11187;SDS011;5650;52.700;7.306;2023-06-10T08:11:31;8.52;;;4.70;;
11187;SDS011;5650;52.700;7.306;2023-06-10T08:14:06;12.43;;;4.88;;
11187;SDS011;5650;52.700;7.306;2023-06-10T08:16:39;7.40;;;4.45;;
11187;SDS011;5650;52.700;7.306;2023-06-10T08:19:21;24.88;;;6.25;;
11187;SDS011;5650;52.700;7.306;2023-06-10T08:21:51;8.15;;;4.78;;
11187;SDS011;5650;52.700;7.306;2023-06-10T08:24:30;8.07;;;5.15;;
11187;SDS011;5650;52.700;7.306;2023-06-10T08:26:57;7.78;;;4.75;;
11187;SDS011;5650;52.700;7.306;2023-06-10T08:29:32;9.88;;;5.28;;
11187;SDS011;5650;52.700;7.306;2023-06-10T08:31:59;8.90;;;5.03;;
11187;SDS011;5650;52.700;7.306;2023-06-10T08:34:30;12.90;;;6.07;;
11187;SDS011;5650;52.700;7.306;2023-06-10T08:36:59;10.15;;;5.57;;
11187;SDS011;5650;52.700;7.306;2023-06-10T08:39:26;11.80;;;5.65;;
11187;SDS011;5650;52.700;7.306;2023-06-10T08:42:00;10.57;;;4.90;;
11187;SDS011;5650;52.700;7.306;2023-06-10T08:44:35;7.60;;;4.90;;
11187;SDS011;5650;52.700;7.306;2023-06-10T08:47:06;8.63;;;4.47;;
11187;SDS011;5650;52.700;7.306;2023-06-10T08:49:38;8.07;;;5.00;;
11187;SDS011;5650;52.700;7.306;2023-06-10T08:52:14;8.07;;;4.72;;
11187;SDS011;5650;52.700;7.306;2023-06-10T08:54:42;7.90;;;4.85;;
11187;SDS011;5650;52.700;7.306;2023-06-10T08:57:16;8.00;;;4.38;;
11187;SDS011;5650;52.700;7.306;2023-06-10T08:59:48;9.90;;;4.70;;
11187;SDS011;5650;52.700;7.306;2023-06-10T09:02:18;8.50;;;4.50;;
11187;SDS011;5650;52.700;7.306;2023-06-10T09:04:47;7.88;;;4.72;;
11187;SDS011;5650;52.700;7.306;2023-06-10T09:07:15;8.70;;;4.63;;
11187;SDS011;5650;52.700;7.306;2023-06-10T09:09:43;8.80;;;4.78;;
11187;SDS011;5650;52.700;7.306;2023-06-10T09:12:14;10.60;;;4.78;;
11187;SDS011;5650;52.700;7.306;2023-06-10T09:14:41;7.95;;;4.50;;
11187;SDS011;5650;52.700;7.306;2023-06-10T09:17:10;10.00;;;4.18;;
11187;SDS011;5650;52.700;7.306;2023-06-10T09:19:40;9.38;;;4.10;;
11187;SDS011;5650;52.700;7.306;2023-06-10T09:22:10;8.75;;;4.40;;
11187;SDS011;5650;52.700;7.306;2023-06-10T09:24:37;7.28;;;4.10;;
11187;SDS011;5650;52.700;7.306;2023-06-10T09:27:08;7.03;;;4.13;;
11187;SDS011;5650;52.700;7.306;2023-06-10T09:29:45;6.80;;;4.63;;
11187;SDS011;5650;52.700;7.306;2023-06-10T09:32:18;7.95;;;4.38;;
11187;SDS011;5650;52.700;7.306;2023-06-10T09:34:46;7.82;;;4.55;;
11187;SDS011;5650;52.700;7.306;2023-06-10T09:37:23;9.63;;;4.95;;
11187;SDS011;5650;52.700;7.306;2023-06-10T09:40:01;9.07;;;4.85;;
11187;SDS011;5650;52.700;7.306;2023-06-10T09:42:32;9.73;;;5.72;;
11187;SDS011;5650;52.700;7.306;2023-06-10T09:45:04;8.10;;;4.97;;
11187;SDS011;5650;52.700;7.306;2023-06-10T09:47:45;8.50;;;5.18;;
11187;SDS011;5650;52.700;7.306;2023-06-10T09:50:12;8.15;;;5.18;;
11187;SDS011;5650;52.700;7.306;2023-06-10T09:52:40;8.30;;;5.70;;
11187;SDS011;5650;52.700;7.306;2023-06-10T09:55:10;7.22;;;5.10;;
11187;SDS011;5650;52.700;7.306;2023-06-10T09:57:40;9.45;;;5.57;;
11187;SDS011;5650;52.700;7.306;2023-06-10T10:00:10;10.85;;;5.80;;
11187;SDS011;5650;52.700;7.306;2023-06-10T10:02:47;9.65;;;5.55;;
11187;SDS011;5650;52.700;7.306;2023-06-10T10:05:16;11.80;;;5.50;;
11187;SDS011;5650;52.700;7.306;2023-06-10T10:07:44;8.07;;;5.10;;
11187;SDS011;5650;52.700;7.306;2023-06-10T10:10:12;10.32;;;5.90;;
11187;SDS011;5650;52.700;7.306;2023-06-10T10:12:48;9.85;;;6.22;;
11187;SDS011;5650;52.700;7.306;2023-06-10T10:15:20;13.27;;;5.43;;
11187;SDS011;5650;52.700;7.306;2023-06-10T10:20:45;10.35;;;6.82;;
11187;SDS011;5650;52.700;7.306;2023-06-10T10:23:14;7.95;;;5.88;;
11187;SDS011;5650;52.700;7.306;2023-06-10T10:25:51;7.95;;;5.55;;
11187;SDS011;5650;52.700;7.306;2023-06-10T10:28:20;6.85;;;6.13;;
11187;SDS011;5650;52.700;7.306;2023-06-10T10:30:54;6.88;;;6.03;;
11187;SDS011;5650;52.700;7.306;2023-06-10T10:33:29;10.02;;;6.53;;
11187;SDS011;5650;52.700;7.306;2023-06-10T10:36:07;8.23;;;6.50;;
11187;SDS011;5650;52.700;7.306;2023-06-10T10:38:42;10.45;;;6.57;;
11187;SDS011;5650;52.700;7.306;2023-06-10T10:41:12;7.88;;;6.32;;
11187;SDS011;5650;52.700;7.306;2023-06-10T10:43:42;10.57;;;6.60;;
11187;SDS011;5650;52.700;7.306;2023-06-10T10:46:11;9.50;;;5.55;;
11187;SDS011;5650;52.700;7.306;2023-06-10T10:48:44;8.60;;;5.70;;
11187;SDS011;5650;52.700;7.306;2023-06-10T10:51:33;6.22;;;4.78;;
11187;SDS011;5650;52.700;7.306;2023-06-10T10:54:11;7.97;;;5.13;;
11187;SDS011;5650;52.700;7.306;2023-06-10T10:56:39;5.72;;;4.50;;
11187;SDS011;5650;52.700;7.306;2023-06-10T10:59:42;9.18;;;4.43;;
11187;SDS011;5650;52.700;7.306;2023-06-10T11:02:32;7.68;;;4.10;;
11187;SDS011;5650;52.700;7.306;2023-06-10T11:05:08;5.80;;;3.65;;
11187;SDS011;5650;52.700;7.306;2023-06-10T11:07:39;5.10;;;4.22;;
11187;SDS011;5650;52.700;7.306;2023-06-10T11:10:20;7.53;;;3.90;;
11187;SDS011;5650;52.700;7.306;2023-06-10T11:13:15;5.90;;;4.35;;
11187;SDS011;5650;52.700;7.306;2023-06-10T11:15:45;6.75;;;3.72;;
11187;SDS011;5650;52.700;7.306;2023-06-10T11:21:10;5.63;;;3.97;;
11187;SDS011;5650;52.700;7.306;2023-06-10T11:23:45;6.47;;;4.43;;
11187;SDS011;5650;52.700;7.306;2023-06-10T11:26:18;6.63;;;3.58;;
11187;SDS011;5650;52.700;7.306;2023-06-10T11:29:08;5.10;;;3.35;;
11187;SDS011;5650;52.700;7.306;2023-06-10T11:31:51;4.80;;;3.47;;
11187;SDS011;5650;52.700;7.306;2023-06-10T11:34:23;5.35;;;3.45;;
11187;SDS011;5650;52.700;7.306;2023-06-10T11:36:54;5.75;;;3.03;;
11187;SDS011;5650;52.700;7.306;2023-06-10T11:39:24;3.92;;;3.05;;
11187;SDS011;5650;52.700;7.306;2023-06-10T11:41:55;6.38;;;3.17;;
11187;SDS011;5650;52.700;7.306;2023-06-10T11:44:25;4.72;;;3.28;;
11187;SDS011;5650;52.700;7.306;2023-06-10T11:46:55;4.90;;;3.22;;
11187;SDS011;5650;52.700;7.306;2023-06-10T11:49:23;3.60;;;3.05;;
11187;SDS011;5650;52.700;7.306;2023-06-10T11:51:55;2.92;;;2.60;;
11187;SDS011;5650;52.700;7.306;2023-06-10T11:54:22;4.85;;;3.25;;
11187;SDS011;5650;52.700;7.306;2023-06-10T11:57:04;4.35;;;2.75;;
11187;SDS011;5650;52.700;7.306;2023-06-10T11:59:36;5.20;;;3.17;;
11187;SDS011;5650;52.700;7.306;2023-06-10T12:02:07;7.47;;;3.53;;
11187;SDS011;5650;52.700;7.306;2023-06-10T12:04:41;5.68;;;3.22;;
11187;SDS011;5650;52.700;7.306;2023-06-10T12:07:16;5.32;;;3.80;;
11187;SDS011;5650;52.700;7.306;2023-06-10T12:09:47;6.78;;;3.50;;
11187;SDS011;5650;52.700;7.306;2023-06-10T12:12:25;7.70;;;4.35;;
11187;SDS011;5650;52.700;7.306;2023-06-10T12:14:53;8.60;;;4.13;;
11187;SDS011;5650;52.700;7.306;2023-06-10T12:17:22;6.80;;;4.28;;
11187;SDS011;5650;52.700;7.306;2023-06-10T12:19:50;7.38;;;4.45;;
11187;SDS011;5650;52.700;7.306;2023-06-10T12:22:19;5.38;;;3.47;;
11187;SDS011;5650;52.700;7.306;2023-06-10T12:27:34;7.03;;;3.00;;
11187;SDS011;5650;52.700;7.306;2023-06-10T12:30:03;4.43;;;3.60;;
11187;SDS011;5650;52.700;7.306;2023-06-10T12:32:42;4.72;;;3.00;;
11187;SDS011;5650;52.700;7.306;2023-06-10T12:35:16;6.10;;;3.20;;
11187;SDS011;5650;52.700;7.306;2023-06-10T12:37:55;3.88;;;2.85;;
11187;SDS011;5650;52.700;7.306;2023-06-10T12:40:27;6.50;;;2.67;;
11187;SDS011;5650;52.700;7.306;2023-06-10T12:42:56;4.38;;;2.88;;
11187;SDS011;5650;52.700;7.306;2023-06-10T12:45:30;4.32;;;2.55;;
11187;SDS011;5650;52.700;7.306;2023-06-10T12:48:05;4.28;;;2.60;;
11187;SDS011;5650;52.700;7.306;2023-06-10T12:50:34;4.15;;;2.85;;
11187;SDS011;5650;52.700;7.306;2023-06-10T12:53:03;4.10;;;2.78;;
11187;SDS011;5650;52.700;7.306;2023-06-10T12:55:37;5.07;;;3.60;;
11187;SDS011;5650;52.700;7.306;2023-06-10T12:58:05;3.00;;;2.47;;
11187;SDS011;5650;52.700;7.306;2023-06-10T13:00:32;4.72;;;2.58;;
11187;SDS011;5650;52.700;7.306;2023-06-10T13:03:00;6.68;;;2.92;;
11187;SDS011;5650;52.700;7.306;2023-06-10T13:05:30;6.85;;;2.65;;
11187;SDS011;5650;52.700;7.306;2023-06-10T13:07:59;4.32;;;2.47;;
11187;SDS011;5650;52.700;7.306;2023-06-10T13:10:28;9.98;;;3.45;;
11187;SDS011;5650;52.700;7.306;2023-06-10T13:13:02;6.30;;;3.03;;
11187;SDS011;5650;52.700;7.306;2023-06-10T13:15:40;5.82;;;2.80;;
11187;SDS011;5650;52.700;7.306;2023-06-10T13:18:10;8.57;;;3.20;;
11187;SDS011;5650;52.700;7.306;2023-06-10T13:20:38;3.13;;;2.63;;
11187;SDS011;5650;52.700;7.306;2023-06-10T13:23:05;5.10;;;2.42;;
11187;SDS011;5650;52.700;7.306;2023-06-10T13:25:39;5.53;;;3.10;;
11187;SDS011;5650;52.700;7.306;2023-06-10T13:28:09;4.68;;;2.53;;
11187;SDS011;5650;52.700;7.306;2023-06-10T13:30:37;4.68;;;2.97;;
11187;SDS011;5650;52.700;7.306;2023-06-10T13:33:04;3.10;;;2.55;;
11187;SDS011;5650;52.700;7.306;2023-06-10T13:35:43;7.28;;;2.40;;
11187;SDS011;5650;52.700;7.306;2023-06-10T13:38:14;4.07;;;2.28;;
11187;SDS011;5650;52.700;7.306;2023-06-10T13:40:52;3.75;;;2.63;;
11187;SDS011;5650;52.700;7.306;2023-06-10T13:43:19;6.40;;;2.50;;
11187;SDS011;5650;52.700;7.306;2023-06-10T13:45:47;3.20;;;2.20;;
11187;SDS011;5650;52.700;7.306;2023-06-10T13:48:14;3.35;;;2.45;;
11187;SDS011;5650;52.700;7.306;2023-06-10T13:50:41;3.90;;;2.40;;
11187;SDS011;5650;52.700;7.306;2023-06-10T13:53:10;5.05;;;2.58;;
11187;SDS011;5650;52.700;7.306;2023-06-10T13:55:37;3.05;;;2.58;;
11187;SDS011;5650;52.700;7.306;2023-06-10T13:58:09;3.70;;;2.03;;
11187;SDS011;5650;52.700;7.306;2023-06-10T14:00:36;2.97;;;2.42;;
11187;SDS011;5650;52.700;7.306;2023-06-10T14:03:03;7.10;;;2.55;;
11187;SDS011;5650;52.700;7.306;2023-06-10T14:05:30;4.18;;;2.33;;
11187;SDS011;5650;52.700;7.306;2023-06-10T14:07:58;3.78;;;2.47;;
11187;SDS011;5650;52.700;7.306;2023-06-10T14:10:32;2.88;;;2.22;;
11187;SDS011;5650;52.700;7.306;2023-06-10T14:13:02;3.42;;;2.47;;
11187;SDS011;5650;52.700;7.306;2023-06-10T14:15:31;3.42;;;2.45;;
11187;SDS011;5650;52.700;7.306;2023-06-10T14:17:58;3.65;;;2.20;;
11187;SDS011;5650;52.700;7.306;2023-06-10T14:20:25;6.57;;;2.50;;
11187;SDS011;5650;52.700;7.306;2023-06-10T14:22:56;5.55;;;2.58;;
11187;SDS011;5650;52.700;7.306;2023-06-10T14:25:24;5.13;;;2.40;;
11187;SDS011;5650;52.700;7.306;2023-06-10T14:27:51;6.45;;;2.45;;
11187;SDS011;5650;52.700;7.306;2023-06-10T14:30:19;3.20;;;2.13;;
11187;SDS011;5650;52.700;7.306;2023-06-10T14:32:47;3.75;;;2.15;;
11187;SDS011;5650;52.700;7.306;2023-06-10T14:35:15;4.68;;;2.30;;
11187;SDS011;5650;52.700;7.306;2023-06-10T14:37:48;3.13;;;2.08;;
11187;SDS011;5650;52.700;7.306;2023-06-10T14:40:15;3.22;;;2.25;;
11187;SDS011;5650;52.700;7.306;2023-06-10T14:42:42;6.70;;;2.25;;
11187;SDS011;5650;52.700;7.306;2023-06-10T14:45:09;5.75;;;2.45;;
11187;SDS011;5650;52.700;7.306;2023-06-10T14:47:36;4.60;;;2.40;;
11187;SDS011;5650;52.700;7.306;2023-06-10T14:50:09;4.10;;;1.98;;
11187;SDS011;5650;52.700;7.306;2023-06-10T14:52:36;3.45;;;2.30;;
11187;SDS011;5650;52.700;7.306;2023-06-10T14:55:06;5.82;;;2.40;;
11187;SDS011;5650;52.700;7.306;2023-06-10T14:57:33;6.40;;;2.55;;
11187;SDS011;5650;52.700;7.306;2023-06-10T15:00:01;3.97;;;2.53;;
11187;SDS011;5650;52.700;7.306;2023-06-10T15:02:28;4.75;;;2.30;;
11187;SDS011;5650;52.700;7.306;2023-06-10T15:04:56;2.95;;;2.28;;
11187;SDS011;5650;52.700;7.306;2023-06-10T15:07:27;2.83;;;2.40;;
11187;SDS011;5650;52.700;7.306;2023-06-10T15:09:54;2.83;;;2.50;;
11187;SDS011;5650;52.700;7.306;2023-06-10T15:12:21;6.72;;;2.50;;
11187;SDS011;5650;52.700;7.306;2023-06-10T15:14:53;4.40;;;2.75;;
11187;SDS011;5650;52.700;7.306;2023-06-10T15:17:25;3.55;;;2.67;;
11187;SDS011;5650;52.700;7.306;2023-06-10T15:19:52;4.82;;;3.90;;
11187;SDS011;5650;52.700;7.306;2023-06-10T15:22:22;10.48;;;2.83;;
11187;SDS011;5650;52.700;7.306;2023-06-10T15:24:51;3.20;;;2.60;;
11187;SDS011;5650;52.700;7.306;2023-06-10T15:27:18;3.40;;;2.50;;